Time;durP1;ratioP1;P1;durP2;ratioP2;P2;SDS_P1;SDS_P2;PMS_P1;PMS_P2;Temp;Humidity;BMP_temperature;BMP_pressure;BME280_temperature;BME280_humidity;BME280_pressure;Samples;Min_cycle;Max_cycle;Signal;HPM_P1;HPM_P2
2022/05/25 00:01:50;;;;;;;;;;;;;;;18.31;50.82;100819.41;5010315;28;97122;-70
2022/05/25 00:04:17;;;;;;;;;;;;;;;18.64;50.42;100827.03;5007867;28;101155;-70
2022/05/25 00:06:44;;;;;;;;;;;;;;;18.75;49.74;100835.16;5003750;28;98187;-71
2022/05/25 00:09:11;;;;;;;;;;;;;;;18.73;49.24;100828.19;5009432;28;96850;-70
2022/05/25 00:11:37;;;;;;;;;;;;;;;18.63;49.11;100831.50;5008347;28;96855;-71
2022/05/25 00:14:05;;;;;;;;;;;;;;;18.65;49.07;100828.72;5007987;28;98879;-69
2022/05/25 00:16:31;;;;;;;;;;;;;;;18.40;49.92;100831.28;5007477;28;96806;-70
2022/05/25 00:21:41;;;;;;;;;;;;;;;18.51;49.77;100840.31;5007997;28;96740;-68
2022/05/25 00:24:08;;;;;;;;;;;;;;;18.90;48.45;100846.66;5004373;28;99202;-68
2022/05/25 00:26:34;;;;;;;;;;;;;;;18.94;48.61;100840.97;5006584;28;98784;-70
2022/05/25 00:29:01;;;;;;;;;;;;;;;18.82;48.76;100844.50;5010111;28;96769;-69
2022/05/25 00:31:29;;;;;;;;;;;;;;;18.66;49.45;100858.06;5007416;28;98774;-68
2022/05/25 00:33:55;;;;;;;;;;;;;;;18.43;50.04;100842.66;5005020;28;97733;-70
2022/05/25 00:36:22;;;;;;;;;;;;;;;18.43;50.07;100858.72;5004816;28;99589;-68
2022/05/25 00:38:48;;;;;;;;;;;;;;;18.25;50.42;100857.22;5009870;28;96744;-70
2022/05/25 00:41:14;;;;;;;;;;;;;;;18.42;50.21;100862.34;5008272;28;97008;-69
2022/05/25 00:43:42;;;;;;;;;;;;;;;18.35;50.15;100857.50;5010862;28;97864;-70
2022/05/25 00:46:11;;;;;;;;;;;;;;;18.47;50.03;100846.84;5011867;28;101748;-69
2022/05/25 00:48:41;;;;;;;;;;;;;;;18.37;50.16;100850.22;5011689;28;97463;-70
2022/05/25 00:51:12;;;;;;;;;;;;;;;18.10;50.95;100845.72;5010976;28;97451;-70
2022/05/25 00:53:40;;;;;;;;;;;;;;;18.07;50.75;100842.38;5007772;28;99377;-69
2022/05/25 00:56:07;;;;;;;;;;;;;;;17.89;51.03;100839.09;5004647;28;99971;-69
2022/05/25 00:58:34;;;;;;;;;;;;;;;18.07;50.56;100837.03;5009087;28;96951;-70
2022/05/25 01:01:01;;;;;;;;;;;;;;;18.09;50.98;100829.78;5005750;28;96889;-69
2022/05/25 01:03:28;;;;;;;;;;;;;;;17.98;50.96;100834.97;5011921;28;99207;-69
2022/05/25 01:06:02;;;;;;;;;;;;;;;17.86;51.17;100836.59;5005675;28;98572;-70
2022/05/25 01:08:35;;;;;;;;;;;;;;;17.85;51.21;100837.59;5005324;28;96794;-69
2022/05/25 01:11:10;;;;;;;;;;;;;;;18.06;50.60;100838.84;5003158;28;97073;-70
2022/05/25 01:13:40;;;;;;;;;;;;;;;18.20;49.90;100845.97;5009283;28;99722;-73
2022/05/25 01:16:13;;;;;;;;;;;;;;;17.88;51.47;100843.56;5003892;28;101839;-69
2022/05/25 01:18:43;;;;;;;;;;;;;;;17.81;52.04;100850.28;5005270;28;97976;-69
2022/05/25 01:21:16;;;;;;;;;;;;;;;17.96;51.75;100844.91;5006030;28;97387;-70
2022/05/25 01:23:56;;;;;;;;;;;;;;;17.71;52.41;100841.13;5008838;28;98913;-70
2022/05/25 01:26:31;;;;;;;;;;;;;;;17.77;52.35;100851.44;5003990;28;99180;-71
2022/05/25 01:29:06;;;;;;;;;;;;;;;17.67;52.90;100855.63;5009970;28;97175;-71
2022/05/25 01:31:37;;;;;;;;;;;;;;;17.65;53.63;100852.22;5007484;28;96784;-70
2022/05/25 01:34:07;;;;;;;;;;;;;;;17.42;54.13;100855.41;5005481;28;99075;-70
2022/05/25 01:36:38;;;;;;;;;;;;;;;17.68;53.56;100849.34;5000458;28;99074;-70
2022/05/25 01:39:06;;;;;;;;;;;;;;;17.45;54.02;100845.41;5011738;28;96842;-69
2022/05/25 01:41:37;;;;;;;;;;;;;;;17.58;53.78;100845.50;5010029;28;96842;-70
2022/05/25 01:44:06;;;;;;;;;;;;;;;17.35;54.21;100848.72;5003967;28;100423;-69
2022/05/25 01:46:33;;;;;;;;;;;;;;;17.59;53.32;100847.19;5007743;28;99233;-69
2022/05/25 01:49:04;;;;;;;;;;;;;;;17.71;53.29;100843.81;5009494;28;96707;-69
2022/05/25 01:51:33;;;;;;;;;;;;;;;17.46;54.21;100851.59;5004811;28;96897;-69
2022/05/25 01:54:01;;;;;;;;;;;;;;;17.78;53.24;100858.50;5007884;28;98128;-69
2022/05/25 01:56:31;;;;;;;;;;;;;;;17.61;53.60;100850.69;5008831;28;99273;-70
2022/05/25 01:58:59;;;;;;;;;;;;;;;17.61;53.69;100856.00;5007643;28;98980;-70
2022/05/25 02:01:26;;;;;;;;;;;;;;;17.44;53.83;100858.88;5003764;28;96735;-70
2022/05/25 02:06:56;;;;;;;;;;;;;;;17.54;53.78;100881.38;5003305;28;97056;-69
2022/05/25 02:09:29;;;;;;;;;;;;;;;17.58;53.77;100874.03;5006892;28;97184;-69
2022/05/25 02:12:04;;;;;;;;;;;;;;;17.99;52.42;100879.44;5011476;28;96724;-70
2022/05/25 02:14:33;;;;;;;;;;;;;;;18.10;52.08;100874.28;5005595;28;98485;-70
2022/05/25 02:17:06;;;;;;;;;;;;;;;17.71;52.56;100875.88;5007507;28;98855;-70
2022/05/25 02:19:36;;;;;;;;;;;;;;;17.60;52.69;100880.13;5005335;28;98423;-69
2022/05/25 02:22:05;;;;;;;;;;;;;;;17.41;53.40;100883.94;5005478;28;96897;-69
2022/05/25 02:24:35;;;;;;;;;;;;;;;17.45;53.40;100877.47;4999468;28;98205;-70
2022/05/25 02:27:04;;;;;;;;;;;;;;;17.56;53.14;100879.47;5007548;28;99363;-70
2022/05/25 02:29:34;;;;;;;;;;;;;;;17.36;53.72;100883.38;5000824;28;97140;-70
2022/05/25 02:32:03;;;;;;;;;;;;;;;17.82;52.39;100876.06;5011375;28;96941;-70
2022/05/25 02:34:31;;;;;;;;;;;;;;;17.65;52.90;100884.28;5005184;28;99224;-71
2022/05/25 02:36:58;;;;;;;;;;;;;;;17.97;52.02;100890.25;5004274;28;98832;-70
2022/05/25 02:39:26;;;;;;;;;;;;;;;17.60;52.65;100894.34;5006804;28;96856;-70
2022/05/25 02:41:53;;;;;;;;;;;;;;;17.61;52.92;100903.25;5007439;28;96932;-70
2022/05/25 02:44:19;;;;;;;;;;;;;;;17.52;54.12;100900.16;5007543;28;98871;-71
2022/05/25 02:46:46;;;;;;;;;;;;;;;18.20;51.94;100888.78;5010306;28;98868;-71
2022/05/25 02:49:13;;;;;;;;;;;;;;;17.75;52.50;100892.56;5009037;28;97180;-70
2022/05/25 02:51:39;;;;;;;;;;;;;;;17.86;52.50;100906.97;5008362;28;97215;-70
2022/05/25 02:54:06;;;;;;;;;;;;;;;17.84;52.85;100906.22;5002008;28;98891;-69
2022/05/25 02:56:34;;;;;;;;;;;;;;;17.88;52.85;100904.19;5005344;28;99033;-70
2022/05/25 02:59:01;;;;;;;;;;;;;;;18.02;52.22;100906.00;5002992;28;98555;-70
2022/05/25 03:01:28;;;;;;;;;;;;;;;18.04;53.02;100896.06;5006293;28;97918;-70
2022/05/25 03:03:54;;;;;;;;;;;;;;;18.13;52.98;100898.13;5005216;28;97645;-69
2022/05/25 03:06:21;;;;;;;;;;;;;;;18.28;52.35;100907.84;5001891;28;98636;-70
2022/05/25 03:08:47;;;;;;;;;;;;;;;18.44;52.04;100905.91;5007788;28;96814;-70
2022/05/25 03:11:13;;;;;;;;;;;;;;;18.38;52.25;100914.31;5003141;28;97706;-70
2022/05/25 03:13:43;;;;;;;;;;;;;;;18.52;51.55;100914.28;5008743;28;100140;-70
2022/05/25 03:16:12;;;;;;;;;;;;;;;18.61;51.01;100923.56;5007504;28;99067;-71
2022/05/25 03:18:39;;;;;;;;;;;;;;;18.59;51.28;100926.31;5007947;28;97271;-69
2022/05/25 03:21:05;;;;;;;;;;;;;;;18.41;51.80;100929.31;5001390;28;96779;-70
2022/05/25 03:23:31;;;;;;;;;;;;;;;18.43;52.10;100930.94;5005858;28;97750;-69
2022/05/25 03:25:58;;;;;;;;;;;;;;;18.48;51.92;100933.31;5002806;28;101962;-70
2022/05/25 03:28:24;;;;;;;;;;;;;;;18.78;50.39;100935.81;5006954;28;97828;-70
2022/05/25 03:30:52;;;;;;;;;;;;;;;18.73;49.55;100941.47;5005683;28;97013;-70
2022/05/25 03:33:21;;;;;;;;;;;;;;;18.76;49.38;100940.44;5005760;28;99341;-70
2022/05/25 03:35:47;;;;;;;;;;;;;;;18.80;49.26;100949.97;5004736;28;98721;-69
2022/05/25 03:38:13;;;;;;;;;;;;;;;18.93;49.69;100945.50;5007528;28;97264;-69
2022/05/25 03:40:40;;;;;;;;;;;;;;;19.02;49.60;100951.13;5008904;28;97155;-69
2022/05/25 03:43:06;;;;;;;;;;;;;;;18.99;49.55;100948.63;5005788;28;97742;-71
2022/05/25 03:45:33;;;;;;;;;;;;;;;18.88;48.01;100937.78;5006800;28;99208;-70
2022/05/25 03:48:00;;;;;;;;;;;;;;;18.75;48.47;100950.28;5008130;28;96899;-70
2022/05/25 03:50:27;;;;;;;;;;;;;;;18.98;48.14;100944.22;5008159;28;96819;-70
2022/05/25 03:52:53;;;;;;;;;;;;;;;19.13;47.31;100949.53;5002319;28;98896;-69
2022/05/25 03:55:19;;;;;;;;;;;;;;;18.96;48.56;100945.31;5004737;28;100957;-70
2022/05/25 03:57:46;;;;;;;;;;;;;;;19.08;48.59;100955.19;5001196;28;96918;-70
2022/05/25 04:00:14;;;;;;;;;;;;;;;19.09;48.74;100952.41;5009274;28;96863;-70
2022/05/25 04:02:40;;;;;;;;;;;;;;;18.94;49.50;100949.91;5005809;28;98914;-70
2022/05/25 04:05:08;;;;;;;;;;;;;;;19.08;49.22;100956.06;5009380;28;102115;-70
2022/05/25 04:07:40;;;;;;;;;;;;;;;19.03;50.03;100960.00;5005399;28;98625;-70
2022/05/25 04:10:10;;;;;;;;;;;;;;;18.93;50.35;100957.06;5007683;28;97193;-71
2022/05/25 04:12:37;;;;;;;;;;;;;;;18.97;50.08;100963.09;5006834;28;99269;-71
2022/05/25 04:15:04;;;;;;;;;;;;;;;18.96;49.22;100964.06;5006617;28;99176;-71
2022/05/25 04:17:32;;;;;;;;;;;;;;;18.98;48.75;100965.66;5005522;28;96928;-70
2022/05/25 04:19:58;;;;;;;;;;;;;;;19.14;48.37;100965.50;5007855;28;97287;-70
2022/05/25 04:22:26;;;;;;;;;;;;;;;19.40;47.90;100971.75;5006825;28;97541;-71
2022/05/25 04:24:53;;;;;;;;;;;;;;;19.35;48.27;100979.25;5001542;28;98819;-71
2022/05/25 04:27:19;;;;;;;;;;;;;;;19.60;46.97;100983.81;5008881;28;96953;-71
2022/05/25 04:29:45;;;;;;;;;;;;;;;19.43;45.79;100969.72;5002931;28;97346;-71
2022/05/25 04:32:12;;;;;;;;;;;;;;;19.58;44.87;100966.97;5008927;28;98856;-71
2022/05/25 04:34:38;;;;;;;;;;;;;;;19.39;45.42;100976.25;5006992;28;98017;-71
2022/05/25 04:39:49;;;;;;;;;;;;;;;19.60;44.10;100984.69;5006100;28;96688;-71
2022/05/25 04:42:15;;;;;;;;;;;;;;;19.55;43.23;100985.97;5001680;28;99489;-70
2022/05/25 04:44:42;;;;;;;;;;;;;;;19.81;43.17;100985.00;5007099;28;99401;-71
2022/05/25 04:47:09;;;;;;;;;;;;;;;19.65;42.88;100977.16;5004752;28;96841;-70
2022/05/25 04:49:35;;;;;;;;;;;;;;;19.59;42.83;100980.28;5008960;28;96840;-71
2022/05/25 04:52:01;;;;;;;;;;;;;;;19.78;42.38;100971.81;5007418;28;98878;-70
2022/05/25 04:54:28;;;;;;;;;;;;;;;19.90;41.44;100978.97;5004892;28;98159;-70
2022/05/25 04:59:39;;;;;;;;;;;;;;;19.82;41.16;100967.97;5003036;28;97251;-70
2022/05/25 05:02:06;;;;;;;;;;;;;;;19.78;41.58;100963.75;4993199;28;98660;-70
2022/05/25 05:04:32;;;;;;;;;;;;;;;20.29;40.58;100961.84;4991155;28;100809;-70
2022/05/25 05:06:58;;;;;;;;;;;;;;;20.47;40.03;100965.94;4994016;28;98026;-71
2022/05/25 05:09:25;;;;;;;;;;;;;;;20.58;39.89;100970.50;4999601;28;98378;-70
2022/05/25 05:11:51;;;;;;;;;;;;;;;20.79;39.08;100982.38;5007844;28;99040;-71
2022/05/25 05:14:19;;;;;;;;;;;;;;;20.66;39.68;100978.88;5008037;28;98753;-70
2022/05/25 05:16:45;;;;;;;;;;;;;;;21.23;38.34;100984.41;5004616;28;97218;-70
2022/05/25 05:19:12;;;;;;;;;;;;;;;20.60;39.23;100984.69;4993235;28;96931;-71
2022/05/25 05:21:38;;;;;;;;;;;;;;;21.43;38.04;100980.19;5004278;28;99080;-70
2022/05/25 05:24:04;;;;;;;;;;;;;;;21.33;38.09;100982.72;5003397;28;101683;-70
2022/05/25 05:26:32;;;;;;;;;;;;;;;21.19;37.63;100993.69;5011641;28;97039;-70
2022/05/25 05:28:58;;;;;;;;;;;;;;;21.59;37.23;100994.19;5010423;28;96703;-70
2022/05/25 05:31:26;;;;;;;;;;;;;;;21.50;37.09;100994.88;5007185;28;97573;-70
2022/05/25 05:33:53;;;;;;;;;;;;;;;21.32;36.98;100999.84;5003152;28;98517;-72
2022/05/25 05:36:22;;;;;;;;;;;;;;;20.99;37.48;101005.06;5012002;28;97087;-74
2022/05/25 05:38:50;;;;;;;;;;;;;;;21.39;36.81;101011.00;5012376;28;96946;-73
2022/05/25 05:41:20;;;;;;;;;;;;;;;21.03;37.49;101003.84;5011522;28;101447;-70
2022/05/25 05:43:46;;;;;;;;;;;;;;;20.94;37.45;101005.38;5011256;28;100163;-71
2022/05/25 05:46:14;;;;;;;;;;;;;;;21.31;36.79;101016.94;5012136;28;97207;-74
2022/05/25 05:48:42;;;;;;;;;;;;;;;21.37;36.71;101012.94;5012932;28;96862;-73
2022/05/25 05:51:10;;;;;;;;;;;;;;;21.15;37.14;101020.84;5011174;28;98600;-76
2022/05/25 05:53:36;;;;;;;;;;;;;;;21.31;36.68;101016.09;5012493;28;99210;-73
2022/05/25 05:56:03;;;;;;;;;;;;;;;21.12;37.10;101018.41;5007695;28;97669;-72
2022/05/25 05:58:29;;;;;;;;;;;;;;;21.47;36.58;101016.63;5011247;28;97456;-72
2022/05/25 06:00:56;;;;;;;;;;;;;;;22.01;35.31;101016.88;5011382;28;98876;-71
2022/05/25 06:03:22;;;;;;;;;;;;;;;21.86;35.58;101008.16;5011613;28;101774;-70
2022/05/25 06:05:50;;;;;;;;;;;;;;;21.29;36.60;101013.50;5010701;28;97243;-72
2022/05/25 06:08:18;;;;;;;;;;;;;;;21.43;36.75;101001.72;5010864;28;96940;-71
2022/05/25 06:10:45;;;;;;;;;;;;;;;21.82;36.21;101012.06;5011538;28;99060;-71
2022/05/25 06:13:11;;;;;;;;;;;;;;;21.91;36.26;101012.34;5012122;28;98726;-72
2022/05/25 06:21:08;;;;;;;;;;;;;;;22.58;35.05;101018.56;5008446;28;97000;-73
2022/05/25 06:23:35;;;;;;;;;;;;;;;22.71;34.70;101024.69;5010549;28;97693;-71
2022/05/25 06:26:01;;;;;;;;;;;;;;;22.78;34.75;101023.22;5010488;28;96845;-72
2022/05/25 06:28:27;;;;;;;;;;;;;;;22.21;36.18;101032.31;5009990;28;97063;-72
2022/05/25 06:30:54;;;;;;;;;;;;;;;22.33;35.67;101035.00;5006488;28;97941;-71
2022/05/25 06:33:20;;;;;;;;;;;;;;;22.54;35.26;101025.19;5001946;28;98884;-70
2022/05/25 06:35:46;;;;;;;;;;;;;;;22.45;35.61;101028.66;5005202;28;96899;-71
2022/05/25 06:38:14;;;;;;;;;;;;;;;22.55;35.75;101030.47;5006006;28;97617;-71
2022/05/25 06:40:40;;;;;;;;;;;;;;;23.63;33.92;101026.00;5008992;28;97999;-73
2022/05/25 06:43:06;;;;;;;;;;;;;;;23.73;33.71;101035.00;5009183;28;98009;-73
2022/05/25 06:45:33;;;;;;;;;;;;;;;23.66;33.61;101036.53;5008288;28;96677;-72
2022/05/25 06:47:59;;;;;;;;;;;;;;;23.59;33.73;101043.44;5010398;28;97346;-72
2022/05/25 06:50:26;;;;;;;;;;;;;;;23.44;33.56;101043.72;5010266;28;100328;-73
2022/05/25 06:52:52;;;;;;;;;;;;;;;23.49;34.13;101047.91;5010260;28;98840;-76
2022/05/25 06:55:20;;;;;;;;;;;;;;;23.45;34.39;101049.97;5011115;28;96867;-71
2022/05/25 06:57:46;;;;;;;;;;;;;;;23.14;34.54;101046.28;5011003;28;97276;-71
2022/05/25 07:00:13;;;;;;;;;;;;;;;22.77;34.92;101047.63;5009617;28;99092;-72
2022/05/25 07:02:39;;;;;;;;;;;;;;;23.23;34.33;101048.22;5001868;27;102014;-71
2022/05/25 07:05:06;;;;;;;;;;;;;;;22.98;35.10;101062.00;5001573;28;97604;-70
2022/05/25 07:07:32;;;;;;;;;;;;;;;23.08;35.92;101052.19;5004584;28;98641;-71
2022/05/25 07:09:59;;;;;;;;;;;;;;;23.14;35.31;101050.81;5000153;28;99228;-71
2022/05/25 07:12:26;;;;;;;;;;;;;;;22.94;35.10;101055.16;5003791;28;101401;-71
2022/05/25 07:14:53;;;;;;;;;;;;;;;22.99;35.32;101058.34;5006076;28;97547;-71
2022/05/25 07:17:19;;;;;;;;;;;;;;;23.03;35.42;101062.50;5002401;28;97531;-71
2022/05/25 07:19:45;;;;;;;;;;;;;;;22.85;35.65;101062.16;5002244;28;98731;-72
2022/05/25 07:22:12;;;;;;;;;;;;;;;22.87;35.47;101075.50;4999612;28;97853;-71
2022/05/25 07:24:39;;;;;;;;;;;;;;;22.98;35.32;101072.78;5004628;28;96813;-72
2022/05/25 07:27:05;;;;;;;;;;;;;;;22.82;35.33;101078.59;5005207;28;96828;-72
2022/05/25 07:29:33;;;;;;;;;;;;;;;23.12;35.16;101064.41;5006457;28;99344;-72
2022/05/25 07:32:02;;;;;;;;;;;;;;;23.27;35.46;101076.63;5004508;28;99136;-72
2022/05/25 07:34:29;;;;;;;;;;;;;;;22.99;35.43;101072.66;5002346;28;97663;-71
2022/05/25 07:36:58;;;;;;;;;;;;;;;22.88;35.32;101077.22;5006142;28;97056;-71
2022/05/25 07:39:28;;;;;;;;;;;;;;;23.21;34.29;101079.00;5001099;28;98414;-71
2022/05/25 07:41:57;;;;;;;;;;;;;;;23.00;34.88;101087.84;5002127;28;100303;-72
2022/05/25 07:44:26;;;;;;;;;;;;;;;23.43;34.76;101097.78;5000807;28;97178;-71
2022/05/25 07:46:54;;;;;;;;;;;;;;;23.49;34.73;101094.63;5000831;28;97322;-73
2022/05/25 07:49:23;;;;;;;;;;;;;;;23.89;33.84;101096.63;5000573;28;98219;-73
2022/05/25 07:51:50;;;;;;;;;;;;;;;23.86;33.94;101091.47;5005883;28;101045;-73
2022/05/25 07:54:16;;;;;;;;;;;;;;;23.84;33.85;101091.59;5005791;28;97063;-72
2022/05/25 07:56:42;;;;;;;;;;;;;;;23.73;34.20;101091.69;5006263;28;97216;-72
2022/05/25 07:59:10;;;;;;;;;;;;;;;23.65;34.41;101088.75;5005806;28;98994;-71
2022/05/25 08:07:09;;;;;;;;;;;;;;;23.89;34.10;101102.88;4996793;28;96799;-71
2022/05/25 08:09:36;;;;;;;;;;;;;;;23.48;34.78;101103.69;4997438;28;102506;-69
2022/05/25 08:12:04;;;;;;;;;;;;;;;23.50;34.94;101106.25;4999500;28;99212;-71
2022/05/25 08:14:31;;;;;;;;;;;;;;;23.88;34.48;101106.56;5004288;28;99065;-71
2022/05/25 08:16:58;;;;;;;;;;;;;;;24.12;33.84;101098.19;4992598;28;96895;-72
2022/05/25 08:19:25;;;;;;;;;;;;;;;24.16;32.92;101097.78;4999449;28;98898;-72
2022/05/25 08:21:52;;;;;;;;;;;;;;;24.18;33.18;101098.50;5000626;28;99250;-71
2022/05/25 08:24:19;;;;;;;;;;;;;;;24.13;33.16;101095.38;4999733;28;97083;-71
2022/05/25 08:26:45;;;;;;;;;;;;;;;24.31;33.04;101097.47;4997099;28;96789;-71
2022/05/25 08:29:12;;;;;;;;;;;;;;;24.57;32.73;101098.75;4993680;28;99410;-71
2022/05/25 08:31:38;;;;;;;;;;;;;;;24.48;32.36;101096.88;4992748;28;101117;-71
2022/05/25 08:34:05;;;;;;;;;;;;;;;24.67;32.73;101099.66;5001565;28;97661;-71
2022/05/25 08:36:32;;;;;;;;;;;;;;;24.54;32.75;101104.44;4999849;28;97353;-71
2022/05/25 08:38:59;;;;;;;;;;;;;;;24.95;32.34;101101.59;4997338;28;98782;-71
2022/05/25 08:41:28;;;;;;;;;;;;;;;23.89;33.67;101102.03;4996339;28;100101;-71
2022/05/25 08:43:55;;;;;;;;;;;;;;;24.46;33.57;101096.13;5001513;28;97358;-71
2022/05/25 08:46:24;;;;;;;;;;;;;;;24.84;32.42;101101.69;5004829;28;97063;-71
2022/05/25 08:48:51;;;;;;;;;;;;;;;24.16;33.35;101095.09;5003095;28;99424;-71
2022/05/25 08:51:19;;;;;;;;;;;;;;;23.35;34.92;101098.44;5004462;28;98880;-71
2022/05/25 08:53:47;;;;;;;;;;;;;;;23.24;35.04;101106.53;4996187;28;98237;-72
2022/05/25 08:56:18;;;;;;;;;;;;;;;23.16;34.84;101102.78;5001892;28;97286;-71
2022/05/25 08:58:47;;;;;;;;;;;;;;;23.42;34.37;101099.63;5002961;28;101057;-71
2022/05/25 09:01:16;;;;;;;;;;;;;;;24.09;33.75;101102.00;4997726;28;99227;-70
2022/05/25 09:03:46;;;;;;;;;;;;;;;23.87;33.97;101099.44;5003788;28;97144;-71
2022/05/25 09:06:16;;;;;;;;;;;;;;;24.40;33.27;101100.25;5002916;28;96895;-71
2022/05/25 09:08:47;;;;;;;;;;;;;;;24.92;32.84;101096.50;5007104;28;99410;-71
2022/05/25 09:11:16;;;;;;;;;;;;;;;24.22;33.75;101099.97;5007169;28;98854;-71
2022/05/25 09:13:45;;;;;;;;;;;;;;;24.71;33.07;101101.06;5008324;28;97394;-70
2022/05/25 09:16:19;;;;;;;;;;;;;;;25.07;32.34;101098.81;5006417;28;97567;-70
2022/05/25 09:18:53;;;;;;;;;;;;;;;25.04;31.74;101102.63;5007239;28;100381;-70
2022/05/25 09:21:21;;;;;;;;;;;;;;;24.79;31.29;101106.66;5000660;28;99155;-70
2022/05/25 09:23:48;;;;;;;;;;;;;;;25.18;30.10;101098.66;4999864;28;97960;-70
2022/05/25 09:26:16;;;;;;;;;;;;;;;25.37;29.70;101085.16;5003929;28;97691;-70
2022/05/25 09:28:45;;;;;;;;;;;;;;;24.94;30.16;101094.47;4996912;28;99006;-69
2022/05/25 09:31:13;;;;;;;;;;;;;;;23.98;31.25;101096.69;5008615;28;99211;-69
2022/05/25 09:33:42;;;;;;;;;;;;;;;25.20;30.02;101100.25;5005126;28;96820;-68
2022/05/25 09:36:10;;;;;;;;;;;;;;;25.71;29.83;101096.47;5006854;28;97666;-70
2022/05/25 09:38:43;;;;;;;;;;;;;;;25.39;30.67;101094.88;5000338;28;99599;-69
2022/05/25 09:41:11;;;;;;;;;;;;;;;25.15;30.70;101096.22;4994886;28;97724;-70
2022/05/25 09:43:40;;;;;;;;;;;;;;;25.36;30.26;101102.38;5005987;28;96825;-70
2022/05/25 09:46:08;;;;;;;;;;;;;;;24.64;30.95;101105.31;4998125;28;97469;-70
2022/05/25 09:48:41;;;;;;;;;;;;;;;25.36;30.29;101095.13;5001047;28;99443;-70
2022/05/25 09:51:18;;;;;;;;;;;;;;;25.71;29.28;101101.88;5001787;28;101351;-69
2022/05/25 09:53:49;;;;;;;;;;;;;;;25.33;29.10;101097.28;5002246;28;96809;-69
2022/05/25 09:56:20;;;;;;;;;;;;;;;25.36;29.08;101107.81;5002366;28;97535;-70
2022/05/25 09:58:50;;;;;;;;;;;;;;;25.75;28.66;101101.44;4999842;28;99332;-69
2022/05/25 10:01:23;;;;;;;;;;;;;;;25.93;28.60;101100.72;5007255;28;98751;-70
2022/05/25 10:03:50;;;;;;;;;;;;;;;25.00;29.62;101096.66;4995936;28;97717;-70
2022/05/25 10:06:20;;;;;;;;;;;;;;;25.27;29.89;101101.38;5003544;28;97343;-69
2022/05/25 10:08:50;;;;;;;;;;;;;;;24.58;30.01;101105.84;5005656;28;99091;-69
2022/05/25 10:11:29;;;;;;;;;;;;;;;24.63;29.77;101103.59;5003396;28;97717;-70
2022/05/25 10:13:57;;;;;;;;;;;;;;;25.28;28.68;101094.97;5001169;28;96963;-70
2022/05/25 10:16:26;;;;;;;;;;;;;;;25.52;28.66;101097.28;5001791;28;96929;-69
2022/05/25 10:18:52;;;;;;;;;;;;;;;25.18;29.36;101094.13;5006957;28;101667;-70
2022/05/25 10:21:26;;;;;;;;;;;;;;;25.45;28.78;101079.91;5003156;28;99203;-69
2022/05/25 10:23:57;;;;;;;;;;;;;;;24.85;29.26;101081.78;5005743;28;97251;-69
2022/05/25 10:26:31;;;;;;;;;;;;;;;24.47;29.51;101082.50;5006685;28;97691;-70
2022/05/25 10:29:02;;;;;;;;;;;;;;;24.62;29.79;101078.41;5002832;28;99250;-69
2022/05/25 10:37:13;;;;;;;;;;;;;;;25.04;29.59;101069.31;5002141;28;97245;-69
2022/05/25 10:39:40;;;;;;;;;;;;;;;24.27;30.21;101071.75;4997105;28;98935;-69
2022/05/25 10:42:12;;;;;;;;;;;;;;;24.47;29.30;101066.28;4995538;28;98750;-69
2022/05/25 10:44:44;;;;;;;;;;;;;;;24.06;29.99;101074.44;5001939;28;97509;-69
2022/05/25 10:47:17;;;;;;;;;;;;;;;24.23;29.92;101069.28;5002501;28;97464;-69
2022/05/25 10:49:43;;;;;;;;;;;;;;;24.11;30.36;101064.06;5007917;28;99137;-67
2022/05/25 10:52:22;;;;;;;;;;;;;;;23.91;30.14;101062.25;5003739;28;99441;-68
2022/05/25 10:54:51;;;;;;;;;;;;;;;24.96;29.20;101061.91;5007850;28;97196;-70
2022/05/25 10:57:26;;;;;;;;;;;;;;;24.60;29.33;101056.09;5005262;28;97251;-69
2022/05/25 10:59:59;;;;;;;;;;;;;;;24.81;29.63;101056.00;5004847;28;99111;-68
2022/05/25 11:02:34;;;;;;;;;;;;;;;24.39;29.30;101049.06;5002234;28;97298;-69
2022/05/25 11:05:18;;;;;;;;;;;;;;;24.95;28.35;101057.50;5008391;28;96809;-69
2022/05/25 11:07:45;;;;;;;;;;;;;;;25.20;28.36;101051.59;5000825;28;97362;-68
2022/05/25 11:10:24;;;;;;;;;;;;;;;25.02;28.13;101056.81;4999969;28;99742;-68
2022/05/25 11:12:58;;;;;;;;;;;;;;;25.09;27.51;101048.13;5003351;28;98899;-69
2022/05/25 11:15:30;;;;;;;;;;;;;;;24.99;27.45;101057.09;5006190;28;97142;-68
2022/05/25 11:18:04;;;;;;;;;;;;;;;25.00;27.41;101048.00;5001270;28;97763;-67
2022/05/25 11:20:35;;;;;;;;;;;;;;;24.68;27.87;101054.56;5001174;28;99158;-69
2022/05/25 11:23:11;;;;;;;;;;;;;;;24.80;27.18;101053.47;5003769;28;99033;-69
2022/05/25 11:25:44;;;;;;;;;;;;;;;25.05;27.51;101049.41;5002517;28;97034;-69
2022/05/25 11:28:14;;;;;;;;;;;;;;;25.17;27.05;101049.13;5003739;28;97093;-69
2022/05/25 11:30:46;;;;;;;;;;;;;;;24.77;26.97;101051.88;5002202;28;100485;-70
2022/05/25 11:33:22;;;;;;;;;;;;;;;24.86;27.27;101042.94;5004110;28;102309;-69
2022/05/25 11:35:51;;;;;;;;;;;;;;;25.25;26.65;101045.75;5005796;28;97900;-70
2022/05/25 11:38:28;;;;;;;;;;;;;;;25.69;27.00;101036.19;5002667;28;96949;-70
2022/05/25 11:41:01;;;;;;;;;;;;;;;26.21;26.43;101056.47;5004668;28;99423;-68
2022/05/25 11:43:48;;;;;;;;;;;;;;;26.44;25.13;101041.59;5001812;28;98739;-69
2022/05/25 11:46:21;;;;;;;;;;;;;;;25.99;24.48;101046.00;4997745;28;97624;-69
2022/05/25 11:49:04;;;;;;;;;;;;;;;25.89;24.97;101045.16;5002121;28;97336;-68
2022/05/25 11:51:36;;;;;;;;;;;;;;;26.30;24.06;101039.34;4999147;28;99315;-70
2022/05/25 11:54:10;;;;;;;;;;;;;;;26.06;25.40;101038.97;5004440;28;97889;-69
2022/05/25 11:56:45;;;;;;;;;;;;;;;25.92;25.58;101029.47;4996122;28;99374;-69
2022/05/25 11:59:21;;;;;;;;;;;;;;;25.93;25.11;101043.88;5005468;28;97246;-68
2022/05/25 12:01:56;;;;;;;;;;;;;;;26.32;24.48;101041.94;4999507;28;99689;-69
2022/05/25 12:04:30;;;;;;;;;;;;;;;26.23;24.69;101040.06;5001518;28;97733;-70
2022/05/25 12:07:04;;;;;;;;;;;;;;;25.82;25.94;101038.59;5001285;28;96908;-69
2022/05/25 12:09:40;;;;;;;;;;;;;;;26.37;24.96;101037.75;5000273;28;97344;-69
2022/05/25 12:12:11;;;;;;;;;;;;;;;26.20;25.28;101030.38;5000768;28;98949;-69
2022/05/25 12:14:45;;;;;;;;;;;;;;;26.00;26.30;101026.00;5004730;28;99001;-70
2022/05/25 12:17:17;;;;;;;;;;;;;;;26.10;26.15;101032.28;4997944;28;98217;-69
2022/05/25 12:19:43;;;;;;;;;;;;;;;26.04;26.59;101024.72;4999267;28;97013;-68
2022/05/25 12:22:11;;;;;;;;;;;;;;;26.16;26.06;101031.69;5001482;28;99191;-69
2022/05/25 12:24:39;;;;;;;;;;;;;;;25.98;26.07;101023.47;4999685;28;99309;-69
2022/05/25 12:27:07;;;;;;;;;;;;;;;25.13;26.92;101020.69;5002239;28;97234;-68
2022/05/25 12:29:35;;;;;;;;;;;;;;;25.70;26.48;101009.00;5000223;28;97630;-68
2022/05/25 12:32:02;;;;;;;;;;;;;;;25.85;25.17;101022.09;5004450;28;99959;-69
2022/05/25 12:34:33;;;;;;;;;;;;;;;26.52;25.14;101016.41;5002869;28;98023;-68
2022/05/25 12:37:02;;;;;;;;;;;;;;;26.22;25.47;101025.66;4998936;28;97816;-68
2022/05/25 12:39:58;;;;;;;;;;;;;;;26.00;25.62;101020.59;5004136;28;96904;-68
2022/05/25 12:42:48;;;;;;;;;;;;;;;26.09;25.79;101025.13;4944399;28;99510;-69
2022/05/25 12:48:33;;;;;;;;;;;;;;;24.36;28.68;101008.78;5003928;28;97740;-70
2022/05/25 12:51:05;;;;;;;;;;;;;;;25.22;27.88;101014.41;5006491;28;97292;-68
2022/05/25 12:53:33;;;;;;;;;;;;;;;25.04;27.92;101009.84;5009063;28;98965;-67
2022/05/25 12:56:00;;;;;;;;;;;;;;;25.32;27.61;101017.13;5004697;28;99059;-69
2022/05/25 12:58:35;;;;;;;;;;;;;;;25.20;28.11;101012.88;5002832;28;97248;-69
2022/05/25 13:01:02;;;;;;;;;;;;;;;26.33;26.69;101017.38;5007357;28;96869;-68
2022/05/25 13:03:38;;;;;;;;;;;;;;;26.15;26.79;101008.31;5008905;28;99317;-68
2022/05/25 13:06:06;;;;;;;;;;;;;;;26.46;25.98;101006.19;5007042;28;98991;-68
2022/05/25 13:09:07;;;;;;;;;;;;;;;26.98;25.32;101001.91;5007040;28;96955;-69
2022/05/25 13:11:36;;;;;;;;;;;;;;;28.05;24.68;101003.47;5008772;28;97160;-69
2022/05/25 13:14:06;;;;;;;;;;;;;;;28.22;23.74;101006.34;5007892;28;100383;-69
2022/05/25 13:16:52;;;;;;;;;;;;;;;27.15;24.42;101019.19;5004398;28;101143;-70